Time;durP1;ratioP1;P1;durP2;ratioP2;P2;SDS_P1;SDS_P2;PMS_P1;PMS_P2;Temp;Humidity;BMP_temperature;BMP_pressure;BME280_temperature;BME280_humidity;BME280_pressure;Samples;Min_cycle;Max_cycle;Signal;HPM_P1;HPM_P2
2023/03/04 00:01:46;;;;;;;107.05;42.63;;;6.60;99.90;;;;;;4937556;29;20110;-75
2023/03/04 00:04:12;;;;;;;97.18;39.55;;;6.70;99.90;;;;;;4936163;29;20118;-75
2023/03/04 00:06:38;;;;;;;120.88;44.00;;;6.70;99.90;;;;;;4937357;29;20036;-76
2023/03/04 00:09:04;;;;;;;100.40;41.03;;;6.70;99.90;;;;;;4937300;29;20083;-74
2023/03/04 00:11:31;;;;;;;104.68;42.20;;;6.70;99.90;;;;;;4936788;29;20478;-75
2023/03/04 00:13:57;;;;;;;126.78;44.65;;;6.70;99.90;;;;;;4935532;29;20721;-74
2023/03/04 00:16:27;;;;;;;105.38;41.58;;;6.60;99.90;;;;;;4936925;29;20035;-74
2023/03/04 00:18:54;;;;;;;113.35;43.45;;;6.70;99.90;;;;;;4936109;29;20047;-75
2023/03/04 00:21:20;;;;;;;106.78;43.72;;;6.60;99.90;;;;;;4937128;29;20032;-71
2023/03/04 00:23:46;;;;;;;111.82;42.20;;;6.60;99.90;;;;;;4937487;29;20035;-73
2023/03/04 00:26:12;;;;;;;103.68;41.92;;;6.70;99.90;;;;;;4937162;29;20028;-76
2023/03/04 00:28:39;;;;;;;105.28;43.63;;;6.50;99.90;;;;;;4936290;29;20020;-75
2023/03/04 00:31:06;;;;;;;109.97;42.92;;;6.60;99.90;;;;;;4936630;29;20043;-75
2023/03/04 00:33:32;;;;;;;84.38;38.30;;;6.60;99.90;;;;;;4919816;29;20035;-76
2023/03/04 00:35:58;;;;;;;74.75;37.60;;;6.60;99.90;;;;;;4919159;29;20040;-75
2023/03/04 00:38:24;;;;;;;84.57;39.88;;;6.50;99.90;;;;;;4936788;29;20470;-73
2023/03/04 00:40:50;;;;;;;77.47;36.75;;;6.50;99.90;;;;;;4936657;29;20035;-76
2023/03/04 00:43:16;;;;;;;73.38;37.40;;;6.60;99.90;;;;;;4936830;29;20027;-73
2023/03/04 00:45:42;;;;;;;72.68;35.38;;;6.50;99.90;;;;;;4936462;29;20035;-76
2023/03/04 00:48:08;;;;;;;74.55;35.92;;;6.60;99.90;;;;;;4936677;29;20122;-75
2023/03/04 00:50:33;;;;;;;67.55;36.13;;;6.60;99.90;;;;;;4919070;29;20055;-77
2023/03/04 00:53:00;;;;;;;77.85;37.22;;;6.60;99.90;;;;;;4934828;29;20519;-75
2023/03/04 00:55:26;;;;;;;83.50;35.60;;;6.60;99.90;;;;;;4919530;29;20063;-76
2023/03/04 00:57:52;;;;;;;88.22;36.83;;;6.60;99.90;;;;;;4919244;29;20082;-76
2023/03/04 01:00:19;;;;;;;84.82;36.58;;;6.60;99.90;;;;;;4918774;29;20048;-75
2023/03/04 01:02:44;;;;;;;91.53;39.47;;;6.60;99.90;;;;;;4936003;29;20177;-76
2023/03/04 01:05:11;;;;;;;81.13;37.22;;;6.60;99.90;;;;;;4936170;29;20027;-76
2023/03/04 01:07:37;;;;;;;79.75;37.22;;;6.50;99.90;;;;;;4936093;29;20036;-75
2023/03/04 01:10:04;;;;;;;82.72;38.30;;;6.60;99.90;;;;;;4935881;29;20032;-74
2023/03/04 01:12:30;;;;;;;90.65;34.90;;;6.50;99.90;;;;;;4918955;29;20098;-74
2023/03/04 01:14:58;;;;;;;84.00;36.63;;;6.60;99.90;;;;;;4935998;29;20110;-74
2023/03/04 01:17:24;;;;;;;80.32;36.47;;;6.50;99.90;;;;;;4935938;29;20063;-76
2023/03/04 01:19:50;;;;;;;78.18;36.35;;;6.50;99.90;;;;;;4918635;29;20435;-76
2023/03/04 01:22:17;;;;;;;84.00;34.65;;;6.50;99.90;;;;;;4934696;29;20069;-76
2023/03/04 01:24:44;;;;;;;76.07;36.88;;;6.50;99.90;;;;;;4935968;29;20051;-76
2023/03/04 01:27:10;;;;;;;70.57;35.25;;;6.50;99.90;;;;;;4934998;29;20027;-76
2023/03/04 01:29:36;;;;;;;69.15;34.95;;;6.50;99.90;;;;;;4935655;29;20366;-76
2023/03/04 01:32:03;;;;;;;72.65;34.30;;;6.50;99.90;;;;;;4918828;29;20055;-76
2023/03/04 01:34:28;;;;;;;73.88;35.10;;;6.50;99.90;;;;;;4935369;29;20058;-76
2023/03/04 01:36:54;;;;;;;73.88;35.15;;;6.50;99.90;;;;;;4935801;29;20375;-77
2023/03/04 01:39:20;;;;;;;79.05;33.25;;;6.50;99.90;;;;;;4935591;29;20028;-73
2023/03/04 01:41:46;;;;;;;66.78;33.20;;;6.40;99.90;;;;;;4950130;29;20126;-75
2023/03/04 01:44:12;;;;;;;75.55;34.97;;;6.50;99.90;;;;;;4918348;29;20533;-75
2023/03/04 01:46:42;;;;;;;78.38;35.83;;;6.50;99.90;;;;;;4935759;29;20031;-72
2023/03/04 01:49:12;;;;;;;73.63;35.53;;;6.50;99.90;;;;;;4918003;29;20400;-76
2023/03/04 01:51:39;;;;;;;84.28;38.20;;;6.50;99.90;;;;;;4926076;29;20039;-77
2023/03/04 01:54:05;;;;;;;83.78;38.08;;;6.50;99.90;;;;;;4935414;29;20024;-77
2023/03/04 01:56:36;;;;;;;73.75;34.53;;;6.50;99.90;;;;;;4918446;29;20054;-73
2023/03/04 01:59:11;;;;;;;87.43;36.25;;;6.50;99.90;;;;;;4918445;29;20045;-76
2023/03/04 02:01:38;;;;;;;69.22;34.92;;;6.50;99.90;;;;;;4935672;29;20138;-76
2023/03/04 02:04:23;;;;;;;76.57;35.65;;;6.50;99.90;;;;;;4918345;29;20043;-75
2023/03/04 02:06:50;;;;;;;80.55;34.55;;;6.50;99.90;;;;;;4876718;29;20054;-76
2023/03/04 02:09:18;;;;;;;65.22;34.17;;;6.50;99.90;;;;;;4947698;29;20035;-77
2023/03/04 02:11:45;;;;;;;74.93;33.75;;;6.50;99.90;;;;;;4917937;29;20028;-76
2023/03/04 02:14:12;;;;;;;70.53;34.38;;;6.50;99.90;;;;;;4917795;29;20558;-77
2023/03/04 02:16:38;;;;;;;67.15;36.38;;;6.50;99.90;;;;;;4935101;29;20486;-77
2023/03/04 02:19:10;;;;;;;72.78;34.55;;;6.50;99.90;;;;;;4935278;29;20126;-78
2023/03/04 02:21:36;;;;;;;77.13;35.58;;;6.50;99.90;;;;;;4917249;29;20549;-78
2023/03/04 02:24:05;;;;;;;72.50;34.33;;;6.50;99.90;;;;;;4935453;29;20114;-76
2023/03/04 02:26:33;;;;;;;68.47;35.15;;;6.40;99.90;;;;;;4933853;29;20032;-76
2023/03/04 02:29:01;;;;;;;64.10;33.42;;;6.40;99.90;;;;;;4917693;29;20079;-75
2023/03/04 02:31:43;;;;;;;76.68;37.72;;;6.40;99.90;;;;;;4917852;29;20091;-76
2023/03/04 02:34:23;;;;;;;73.13;34.60;;;6.50;99.90;;;;;;4917627;29;20063;-76
2023/03/04 02:36:51;;;;;;;63.53;33.05;;;6.40;99.90;;;;;;4934063;29;20047;-77
2023/03/04 02:39:20;;;;;;;64.53;34.13;;;6.40;99.90;;;;;;4917385;29;20118;-76
2023/03/04 02:41:51;;;;;;;60.30;33.17;;;6.40;99.90;;;;;;4917475;29;20053;-77
2023/03/04 02:44:21;;;;;;;59.88;33.78;;;6.40;99.90;;;;;;4933340;29;20430;-76
2023/03/04 02:46:49;;;;;;;63.72;32.97;;;6.40;99.90;;;;;;4935542;29;20043;-76
2023/03/04 02:49:16;;;;;;;65.90;32.83;;;6.40;99.90;;;;;;4917109;29;20054;-75
2023/03/04 02:51:42;;;;;;;51.22;31.50;;;6.40;99.90;;;;;;4934392;29;20090;-76
2023/03/04 02:54:19;;;;;;;62.05;33.30;;;6.40;99.90;;;;;;4934700;29;20028;-77
2023/03/04 02:56:53;;;;;;;60.95;32.35;;;6.40;99.90;;;;;;4920323;29;20055;-76
2023/03/04 02:59:22;;;;;;;68.55;32.33;;;6.40;99.90;;;;;;4906769;29;20046;-76
2023/03/04 03:01:50;;;;;;;54.72;32.25;;;6.40;99.90;;;;;;4932341;29;20020;-73
2023/03/04 03:04:17;;;;;;;58.83;30.98;;;6.40;99.90;;;;;;4947333;29;20107;-77
2023/03/04 03:06:43;;;;;;;58.25;31.75;;;6.40;99.90;;;;;;4917516;29;20573;-75
2023/03/04 03:09:10;;;;;;;64.30;35.20;;;6.30;99.90;;;;;;4933181;29;20031;-76
2023/03/04 03:11:36;;;;;;;56.67;31.58;;;6.30;99.90;;;;;;4916003;29;20474;-77
2023/03/04 03:14:03;;;;;;;53.75;29.75;;;6.30;99.90;;;;;;4934157;29;20354;-77
2023/03/04 03:16:29;;;;;;;57.88;32.75;;;6.20;99.90;;;;;;4933026;29;20028;-77
2023/03/04 03:18:55;;;;;;;54.20;30.67;;;6.30;99.90;;;;;;4917737;29;20047;-77
2023/03/04 03:21:21;;;;;;;52.35;31.13;;;6.20;99.90;;;;;;4931173;29;20027;-72
2023/03/04 03:23:47;;;;;;;56.20;31.80;;;6.20;99.90;;;;;;4917900;29;20039;-78
2023/03/04 03:26:13;;;;;;;47.33;30.73;;;6.20;99.90;;;;;;4938018;29;20027;-72
2023/03/04 03:28:39;;;;;;;52.58;31.13;;;6.20;99.90;;;;;;4938206;29;20477;-75
2023/03/04 03:31:05;;;;;;;55.38;30.33;;;6.20;99.90;;;;;;4937907;29;20040;-76
2023/03/04 03:33:31;;;;;;;49.45;28.70;;;6.20;99.90;;;;;;4938243;29;20384;-77
2023/03/04 03:35:57;;;;;;;59.10;31.45;;;6.20;99.90;;;;;;4936626;29;20028;-74
2023/03/04 03:38:23;;;;;;;51.13;31.33;;;6.20;99.90;;;;;;4937901;29;20111;-77
2023/03/04 03:40:49;;;;;;;57.97;31.17;;;6.20;99.90;;;;;;4938086;29;20036;-77
2023/03/04 03:43:14;;;;;;;53.97;31.95;;;6.20;99.90;;;;;;4938260;29;20130;-74
2023/03/04 03:45:40;;;;;;;54.80;33.03;;;6.20;99.90;;;;;;4936768;29;20031;-76
2023/03/04 03:48:06;;;;;;;57.75;33.10;;;6.20;99.90;;;;;;4938091;29;20102;-73
2023/03/04 03:50:32;;;;;;;59.95;36.60;;;6.20;99.90;;;;;;4937986;29;20028;-76
2023/03/04 03:52:58;;;;;;;55.95;34.50;;;6.20;99.90;;;;;;4937792;29;20039;-75
2023/03/04 03:55:24;;;;;;;55.67;31.58;;;6.20;99.90;;;;;;4948275;29;20152;-75
2023/03/04 03:57:50;;;;;;;55.53;32.33;;;6.20;99.90;;;;;;4947613;29;20020;-75
2023/03/04 04:00:16;;;;;;;56.15;32.42;;;6.20;99.90;;;;;;4937274;29;20130;-72
2023/03/04 04:02:42;;;;;;;60.20;33.38;;;6.20;99.90;;;;;;4937819;29;20494;-73
2023/03/04 04:05:09;;;;;;;57.63;30.27;;;6.20;99.90;;;;;;4937450;29;20110;-73
2023/03/04 04:07:35;;;;;;;51.65;29.20;;;6.20;99.90;;;;;;4937539;29;20360;-74
2023/03/04 04:10:03;;;;;;;59.80;33.53;;;6.20;99.90;;;;;;4937314;29;20035;-77
2023/03/04 04:12:28;;;;;;;59.97;31.52;;;6.10;99.90;;;;;;4937731;29;20071;-77
2023/03/04 04:14:54;;;;;;;59.20;31.70;;;6.10;99.90;;;;;;4938288;29;20083;-77
2023/03/04 04:17:20;;;;;;;64.57;35.92;;;6.10;99.90;;;;;;4947203;29;20034;-72
2023/03/04 04:19:46;;;;;;;63.55;35.75;;;6.10;99.90;;;;;;4937134;29;20054;-76
2023/03/04 04:22:17;;;;;;;59.70;34.92;;;6.10;99.90;;;;;;4937712;29;20023;-76
2023/03/04 04:24:43;;;;;;;63.45;37.33;;;6.10;99.90;;;;;;4937098;29;20039;-76
2023/03/04 04:27:10;;;;;;;70.43;37.78;;;6.10;99.90;;;;;;4937179;29;20019;-75
2023/03/04 04:29:36;;;;;;;55.10;33.13;;;6.10;99.90;;;;;;4936958;29;20540;-75
2023/03/04 04:32:02;;;;;;;57.42;33.97;;;6.10;99.90;;;;;;4937144;29;20031;-73
2023/03/04 04:34:29;;;;;;;51.35;31.08;;;6.00;99.90;;;;;;4937290;29;20465;-76
2023/03/04 04:36:54;;;;;;;49.00;29.45;;;6.10;99.90;;;;;;4936261;29;20079;-73
2023/03/04 04:39:21;;;;;;;57.35;31.80;;;6.00;99.90;;;;;;4936875;29;20059;-76
2023/03/04 04:41:47;;;;;;;57.45;30.60;;;6.00;99.90;;;;;;4936968;29;20059;-73
2023/03/04 04:44:14;;;;;;;56.80;32.03;;;6.10;99.90;;;;;;4937323;29;20059;-72
2023/03/04 04:46:40;;;;;;;60.70;33.67;;;6.00;99.90;;;;;;4936667;29;20486;-77
2023/03/04 04:49:06;;;;;;;63.00;33.53;;;6.00;99.90;;;;;;4937224;29;20027;-76
2023/03/04 04:51:34;;;;;;;62.28;33.30;;;6.00;99.90;;;;;;4936896;29;20095;-74
2023/03/04 04:54:00;;;;;;;57.53;30.70;;;6.00;99.90;;;;;;4936657;29;20032;-74
2023/03/04 04:56:27;;;;;;;52.47;31.40;;;6.00;99.90;;;;;;4919933;29;20602;-73
2023/03/04 04:58:58;;;;;;;48.95;28.85;;;6.00;99.90;;;;;;4936458;29;20039;-72
2023/03/04 05:01:25;;;;;;;51.95;29.52;;;6.00;99.90;;;;;;4936822;29;20024;-76
2023/03/04 05:03:54;;;;;;;53.85;29.25;;;6.00;99.90;;;;;;4936297;29;20024;-72
2023/03/04 05:06:22;;;;;;;50.47;27.98;;;6.00;99.90;;;;;;4936547;29;20063;-74
2023/03/04 05:08:48;;;;;;;48.63;29.00;;;6.00;99.90;;;;;;4936146;29;20043;-73
2023/03/04 05:11:14;;;;;;;55.85;31.38;;;6.00;99.90;;;;;;4936602;29;20386;-78
2023/03/04 05:13:40;;;;;;;52.58;31.35;;;6.00;99.90;;;;;;4936402;29;20027;-73
2023/03/04 05:16:06;;;;;;;55.58;31.33;;;6.00;99.90;;;;;;4936044;29;20036;-77
2023/03/04 05:18:32;;;;;;;56.63;33.03;;;6.00;99.90;;;;;;4923853;29;20111;-76
2023/03/04 05:21:00;;;;;;;49.42;29.13;;;6.10;99.90;;;;;;4936349;29;20122;-72
2023/03/04 05:23:30;;;;;;;58.72;30.50;;;6.00;99.90;;;;;;4923838;29;20432;-76
2023/03/04 05:25:56;;;;;;;56.35;30.55;;;6.10;99.90;;;;;;4936075;29;20040;-76
2023/03/04 05:28:22;;;;;;;62.90;29.75;;;6.00;99.90;;;;;;4923851;29;20073;-73
2023/03/04 05:30:48;;;;;;;56.30;29.80;;;6.10;99.90;;;;;;4935752;29;20031;-73
2023/03/04 05:33:15;;;;;;;53.08;31.25;;;6.00;99.90;;;;;;4936497;29;20437;-76
2023/03/04 05:35:42;;;;;;;50.90;29.58;;;6.10;99.90;;;;;;4935985;29;20504;-73
2023/03/04 05:38:10;;;;;;;52.78;32.30;;;6.10;99.90;;;;;;4935958;29;20139;-74
2023/03/04 05:40:36;;;;;;;51.78;32.22;;;6.10;99.90;;;;;;4936051;29;20046;-76
2023/03/04 05:43:02;;;;;;;58.92;34.17;;;6.10;99.90;;;;;;4935782;29;20052;-73
2023/03/04 05:45:28;;;;;;;59.28;30.48;;;6.10;99.90;;;;;;4935752;29;20063;-76
2023/03/04 05:47:54;;;;;;;57.42;33.75;;;6.10;99.90;;;;;;4934704;29;20114;-74
2023/03/04 05:50:21;;;;;;;59.35;32.63;;;6.10;99.90;;;;;;4935732;29;20080;-73
2023/03/04 05:52:48;;;;;;;48.63;32.40;;;6.10;99.90;;;;;;4935557;29;20107;-77
2023/03/04 05:55:16;;;;;;;56.63;32.78;;;6.10;99.90;;;;;;4936094;29;20036;-72
2023/03/04 05:57:42;;;;;;;57.80;33.88;;;6.10;99.90;;;;;;4935322;29;20076;-76
2023/03/04 06:00:09;;;;;;;53.45;32.85;;;6.20;99.90;;;;;;4935351;29;20044;-75
2023/03/04 06:02:39;;;;;;;60.72;34.60;;;6.20;99.90;;;;;;4928767;29;20028;-74
2023/03/04 06:05:06;;;;;;;57.35;35.05;;;6.20;99.90;;;;;;4916328;29;20043;-72
2023/03/04 06:07:32;;;;;;;59.28;34.25;;;6.20;99.90;;;;;;4935030;29;20043;-74
2023/03/04 06:09:57;;;;;;;51.55;33.70;;;6.20;99.90;;;;;;4932764;29;20571;-74
2023/03/04 06:12:23;;;;;;;62.08;33.35;;;6.20;99.90;;;;;;4918568;29;20370;-75
2023/03/04 06:14:50;;;;;;;48.70;30.58;;;6.20;99.90;;;;;;4915507;29;20052;-74
2023/03/04 06:17:16;;;;;;;52.35;31.55;;;6.20;99.90;;;;;;4915924;29;20032;-74
2023/03/04 06:19:42;;;;;;;54.38;31.55;;;6.20;99.90;;;;;;4915570;29;20387;-77
2023/03/04 06:22:09;;;;;;;55.13;30.38;;;6.30;99.90;;;;;;4915539;29;20476;-72
2023/03/04 06:24:35;;;;;;;61.58;31.20;;;6.30;99.90;;;;;;4917333;29;20023;-77
2023/03/04 06:27:01;;;;;;;54.83;32.38;;;6.30;99.90;;;;;;4915491;29;20028;-77
2023/03/04 06:29:27;;;;;;;52.83;32.40;;;6.40;99.90;;;;;;4915733;29;20458;-76
2023/03/04 06:31:53;;;;;;;61.45;32.28;;;6.40;99.90;;;;;;4915164;29;20048;-73
2023/03/04 06:34:19;;;;;;;56.67;32.92;;;6.40;99.90;;;;;;4915428;29;20066;-76
2023/03/04 06:36:45;;;;;;;50.17;30.60;;;6.40;99.90;;;;;;4919886;29;20485;-74
2023/03/04 06:39:10;;;;;;;54.88;29.48;;;6.50;99.90;;;;;;4929165;29;20154;-75
2023/03/04 06:41:37;;;;;;;53.15;32.58;;;6.50;99.90;;;;;;4920007;29;20031;-74
2023/03/04 06:44:03;;;;;;;52.55;28.98;;;6.60;99.90;;;;;;4904526;29;20032;-72
2023/03/04 06:46:29;;;;;;;51.80;29.95;;;6.60;99.90;;;;;;4925349;29;20028;-73
2023/03/04 06:48:55;;;;;;;55.88;31.20;;;6.60;99.90;;;;;;4928662;29;20028;-73
2023/03/04 06:51:21;;;;;;;48.17;31.52;;;6.70;99.90;;;;;;4918080;29;20060;-75
2023/03/04 06:53:47;;;;;;;58.20;35.55;;;6.80;99.90;;;;;;4933256;29;20476;-73
2023/03/04 06:56:16;;;;;;;55.10;35.78;;;6.70;99.90;;;;;;4921592;29;20032;-77
2023/03/04 06:58:43;;;;;;;58.25;34.65;;;6.80;99.90;;;;;;4933239;29;20020;-77
2023/03/04 07:01:21;;;;;;;53.25;33.08;;;6.80;99.90;;;;;;4933557;29;20039;-75
2023/03/04 07:03:48;;;;;;;56.55;34.05;;;6.80;99.90;;;;;;4933683;29;20039;-73
2023/03/04 07:06:16;;;;;;;52.70;33.15;;;6.80;99.90;;;;;;4933609;28;20040;-71
2023/03/04 07:08:42;;;;;;;61.17;35.25;;;6.90;99.90;;;;;;4933761;29;20474;-77
2023/03/04 07:11:09;;;;;;;54.42;34.92;;;6.90;99.90;;;;;;4933748;29;20039;-75
2023/03/04 07:13:37;;;;;;;57.80;33.88;;;6.90;99.90;;;;;;4934146;29;20028;-77
2023/03/04 07:16:14;;;;;;;57.25;34.72;;;7.00;99.90;;;;;;4933232;29;20477;-75
2023/03/04 07:18:40;;;;;;;54.00;35.13;;;7.10;99.90;;;;;;4933711;29;20036;-77
2023/03/04 07:21:07;;;;;;;63.17;36.25;;;7.10;99.90;;;;;;4933436;29;20074;-77
2023/03/04 07:23:33;;;;;;;57.60;36.10;;;7.20;99.90;;;;;;4933537;29;20035;-77
2023/03/04 07:25:59;;;;;;;57.22;33.97;;;7.20;99.90;;;;;;4933719;29;20039;-76
2023/03/04 07:28:25;;;;;;;65.78;36.25;;;7.30;99.90;;;;;;4934325;29;20032;-74
2023/03/04 07:30:51;;;;;;;54.97;32.80;;;7.40;99.90;;;;;;4934845;29;20140;-73
2023/03/04 07:33:17;;;;;;;53.95;34.30;;;7.40;99.90;;;;;;4934792;29;20034;-77
2023/03/04 07:35:43;;;;;;;54.83;33.70;;;7.50;99.90;;;;;;4934816;29;20028;-74
2023/03/04 07:38:10;;;;;;;56.08;32.65;;;7.60;99.90;;;;;;4934131;29;20038;-77
2023/03/04 07:40:36;;;;;;;51.45;32.03;;;7.70;99.90;;;;;;4934619;29;20039;-77
2023/03/04 07:43:03;;;;;;;59.95;32.45;;;7.70;99.90;;;;;;4934266;29;20028;-76
2023/03/04 07:45:28;;;;;;;53.00;32.13;;;7.70;99.90;;;;;;4934318;29;20032;-78
2023/03/04 07:47:54;;;;;;;50.10;30.23;;;7.60;99.90;;;;;;4934248;29;20117;-78
2023/03/04 07:50:21;;;;;;;52.17;31.92;;;7.70;99.90;;;;;;4934281;29;20047;-78
2023/03/04 07:52:49;;;;;;;51.75;31.70;;;7.70;99.90;;;;;;4934764;29;20040;-77
2023/03/04 07:55:16;;;;;;;52.95;32.15;;;7.70;99.90;;;;;;4934224;29;20504;-77
2023/03/04 07:57:46;;;;;;;49.42;33.45;;;7.90;99.90;;;;;;4934372;29;20091;-77
2023/03/04 08:00:14;;;;;;;50.97;31.02;;;8.00;99.90;;;;;;4933620;29;20044;-75
2023/03/04 08:02:40;;;;;;;45.95;31.38;;;8.20;99.90;;;;;;4934221;29;20024;-76
2023/03/04 08:05:07;;;;;;;49.83;30.75;;;8.20;99.90;;;;;;4934054;29;20032;-78
2023/03/04 08:07:33;;;;;;;47.78;29.02;;;8.30;99.90;;;;;;4934077;29;20127;-77
2023/03/04 08:10:00;;;;;;;50.00;30.73;;;8.30;99.90;;;;;;4934290;29;20135;-76
2023/03/04 08:12:26;;;;;;;45.88;28.50;;;8.40;99.90;;;;;;4936738;29;20434;-78
2023/03/04 08:14:54;;;;;;;45.70;30.05;;;8.40;99.90;;;;;;4937403;29;20031;-75
2023/03/04 08:17:19;;;;;;;46.22;29.60;;;8.50;99.90;;;;;;4937428;29;20024;-78
2023/03/04 08:19:45;;;;;;;41.38;27.20;;;8.50;99.90;;;;;;4937392;29;20047;-78
2023/03/04 08:22:11;;;;;;;43.13;26.98;;;8.50;99.90;;;;;;4937051;29;20052;-78
2023/03/04 08:24:37;;;;;;;49.42;28.92;;;8.70;99.90;;;;;;4937292;29;20063;-77
2023/03/04 08:27:04;;;;;;;42.92;27.40;;;8.80;99.90;;;;;;4936837;29;20483;-76
2023/03/04 08:29:30;;;;;;;43.30;28.13;;;8.80;99.90;;;;;;4937361;29;20026;-78
2023/03/04 08:31:56;;;;;;;42.80;26.92;;;8.90;99.90;;;;;;4939439;29;20397;-77
2023/03/04 08:34:24;;;;;;;45.80;24.85;;;9.00;99.90;;;;;;4943340;29;20031;-76
2023/03/04 08:36:50;;;;;;;46.75;27.05;;;9.10;99.90;;;;;;4944431;29;20083;-77
2023/03/04 08:39:17;;;;;;;45.35;26.45;;;9.00;99.90;;;;;;4936371;29;20400;-77
2023/03/04 08:41:44;;;;;;;47.50;28.95;;;9.10;99.90;;;;;;4934948;29;20062;-77
2023/03/04 08:44:10;;;;;;;45.42;27.95;;;9.10;99.90;;;;;;4936594;29;20042;-75
2023/03/04 08:46:38;;;;;;;43.05;27.42;;;9.00;99.90;;;;;;4935866;29;20020;-77
2023/03/04 08:49:04;;;;;;;41.13;27.30;;;9.10;99.90;;;;;;4927323;29;20089;-78
2023/03/04 08:51:30;;;;;;;42.25;26.10;;;9.20;99.90;;;;;;4917484;29;20103;-78
2023/03/04 08:53:56;;;;;;;47.17;29.70;;;9.20;99.90;;;;;;4916775;29;20107;-77
2023/03/04 08:56:22;;;;;;;66.95;35.80;;;9.40;99.90;;;;;;4919749;29;20031;-78
2023/03/04 08:58:47;;;;;;;47.70;30.67;;;9.50;99.90;;;;;;4916698;29;20084;-76
2023/03/04 09:01:14;;;;;;;48.13;29.63;;;9.50;99.90;;;;;;4916773;29;20865;-78
2023/03/04 09:03:40;;;;;;;40.40;25.58;;;9.60;99.90;;;;;;4917879;29;20317;-75
2023/03/04 09:06:08;;;;;;;43.55;25.38;;;9.60;99.90;;;;;;4935292;28;20540;-77
2023/03/04 09:08:34;;;;;;;40.67;25.33;;;9.30;99.90;;;;;;4936600;29;20498;-77
2023/03/04 09:11:00;;;;;;;47.17;27.77;;;9.50;99.90;;;;;;4936287;29;20039;-77
2023/03/04 09:13:29;;;;;;;44.80;28.48;;;9.60;99.90;;;;;;4936673;29;20075;-77
2023/03/04 09:15:55;;;;;;;40.97;25.85;;;9.70;99.90;;;;;;4935951;29;20115;-77
2023/03/04 09:18:22;;;;;;;40.55;26.67;;;9.60;99.90;;;;;;4936528;29;20114;-77
2023/03/04 09:20:49;;;;;;;40.55;26.73;;;9.60;99.90;;;;;;4936128;29;20040;-76
2023/03/04 09:23:15;;;;;;;37.25;26.15;;;9.60;99.90;;;;;;4935621;29;20466;-77
2023/03/04 09:25:42;;;;;;;45.75;26.40;;;9.80;99.90;;;;;;4936180;29;20114;-72
2023/03/04 09:28:10;;;;;;;35.85;25.70;;;9.60;99.90;;;;;;4936075;29;20083;-75
2023/03/04 09:30:36;;;;;;;40.10;25.23;;;9.80;99.90;;;;;;4919013;29;20039;-77
2023/03/04 09:33:02;;;;;;;44.67;28.58;;;9.80;99.90;;;;;;4935598;29;20020;-75
2023/03/04 09:35:31;;;;;;;40.38;26.95;;;9.90;99.90;;;;;;4923339;29;20060;-76
2023/03/04 09:37:57;;;;;;;40.08;24.92;;;9.70;99.90;;;;;;4916393;29;20024;-77
2023/03/04 09:40:29;;;;;;;37.55;24.80;;;9.70;99.90;;;;;;4930961;29;20473;-77
2023/03/04 09:43:02;;;;;;;41.13;27.08;;;9.70;99.90;;;;;;4936167;29;20031;-77
2023/03/04 09:45:38;;;;;;;45.65;28.40;;;9.80;99.90;;;;;;4935612;29;20036;-77
2023/03/04 09:48:05;;;;;;;42.60;26.48;;;9.80;99.90;;;;;;4935669;29;20115;-71
2023/03/04 09:50:38;;;;;;;43.83;28.67;;;10.00;99.90;;;;;;4935858;29;20027;-76
2023/03/04 09:53:16;;;;;;;44.90;27.85;;;10.00;99.90;;;;;;4936048;29;20079;-76
2023/03/04 09:55:48;;;;;;;44.40;26.33;;;10.20;99.90;;;;;;4935935;29;20103;-77
2023/03/04 09:58:39;;;;;;;45.03;28.38;;;10.00;99.90;;;;;;4935505;29;20072;-77
2023/03/04 10:01:29;;;;;;;42.22;25.92;;;9.90;99.90;;;;;;4895440;29;20139;-76
2023/03/04 10:04:18;;;;;;;37.85;23.75;;;9.90;99.90;;;;;;4895288;29;20066;-76
2023/03/04 10:06:53;;;;;;;40.83;25.38;;;9.80;99.90;;;;;;4803091;29;20059;-72
2023/03/04 10:09:41;;;;;;;45.15;29.30;;;9.90;99.90;;;;;;4803005;29;20396;-75
2023/03/04 10:12:13;;;;;;;44.88;28.67;;;10.00;99.90;;;;;;4801149;29;20084;-77
2023/03/04 10:14:51;;;;;;;41.85;27.70;;;10.20;99.90;;;;;;4801101;29;20038;-77
2023/03/04 10:17:17;;;;;;;44.53;28.05;;;10.10;99.90;;;;;;4800399;29;20053;-75
2023/03/04 10:20:01;;;;;;;40.75;26.77;;;10.00;99.90;;;;;;4801978;29;20046;-78
2023/03/04 10:22:35;;;;;;;44.40;26.15;;;10.10;99.90;;;;;;4802413;29;20493;-72
2023/03/04 10:25:25;;;;;;;41.50;28.02;;;10.20;99.90;;;;;;4802746;29;20051;-74
2023/03/04 10:28:04;;;;;;;40.83;26.52;;;10.20;99.90;;;;;;4802785;29;20412;-76
2023/03/04 10:30:45;;;;;;;41.38;28.17;;;10.10;99.90;;;;;;4803088;29;20463;-75
2023/03/04 10:33:16;;;;;;;39.15;27.58;;;10.10;99.90;;;;;;4802095;29;20099;-73
2023/03/04 10:36:19;;;;;;;47.72;31.38;;;10.30;99.90;;;;;;4801960;29;20045;-75
2023/03/04 10:38:44;;;;;;;41.30;26.27;;;10.20;99.90;;;;;;4831038;29;20050;-77
2023/03/04 10:41:17;;;;;;;46.90;28.63;;;10.30;99.90;;;;;;4839450;29;20044;-77
2023/03/04 10:43:48;;;;;;;48.28;29.30;;;10.40;99.90;;;;;;4872712;29;20052;-76
2023/03/04 10:46:15;;;;;;;41.57;27.47;;;10.50;99.90;;;;;;4921611;29;20508;-76
2023/03/04 10:48:43;;;;;;;40.72;28.88;;;10.60;99.90;;;;;;4934627;29;20282;-76
2023/03/04 10:51:22;;;;;;;45.15;30.80;;;10.80;99.90;;;;;;4928116;29;20065;-76
2023/03/04 10:53:57;;;;;;;42.05;27.98;;;10.80;99.90;;;;;;4915703;29;20055;-76
2023/03/04 10:56:44;;;;;;;42.35;28.15;;;10.90;99.90;;;;;;4915282;29;20074;-75
2023/03/04 10:59:31;;;;;;;45.03;28.60;;;10.90;99.90;;;;;;4931403;29;20043;-76
2023/03/04 11:01:58;;;;;;;44.30;28.33;;;10.80;99.90;;;;;;4934492;29;20474;-75
2023/03/04 11:04:27;;;;;;;40.70;27.48;;;10.80;99.90;;;;;;4919947;29;20439;-78
2023/03/04 11:06:53;;;;;;;41.67;28.92;;;11.00;99.90;;;;;;4915294;29;20131;-78
2023/03/04 11:09:24;;;;;;;42.53;27.60;;;11.10;99.90;;;;;;4927149;29;20055;-76
2023/03/04 11:11:51;;;;;;;45.40;29.15;;;11.20;99.90;;;;;;4935179;29;20493;-74
2023/03/04 11:14:20;;;;;;;43.10;28.13;;;11.30;99.90;;;;;;4934674;29;20019;-77
2023/03/04 11:17:00;;;;;;;43.38;27.17;;;11.30;99.90;;;;;;4934579;29;20051;-79
2023/03/04 11:19:49;;;;;;;38.55;24.35;;;11.40;99.90;;;;;;4923693;29;20107;-77
2023/03/04 11:22:18;;;;;;;38.17;24.38;;;11.40;99.90;;;;;;4934702;29;20039;-79
2023/03/04 11:25:02;;;;;;;38.25;25.02;;;11.40;99.90;;;;;;4934817;29;20043;-74
2023/03/04 11:27:47;;;;;;;36.75;23.35;;;11.60;99.90;;;;;;4934720;29;20594;-77
2023/03/04 11:30:25;;;;;;;31.27;20.63;;;11.80;99.90;;;;;;4934703;29;20043;-78
2023/03/04 11:32:56;;;;;;;35.22;22.27;;;11.70;99.90;;;;;;4934074;29;20554;-78
2023/03/04 11:35:28;;;;;;;34.95;22.80;;;11.70;99.90;;;;;;4934965;29;20043;-78
2023/03/04 11:38:13;;;;;;;;;;;11.80;99.90;;;;;;4935108;29;20055;-78
2023/03/04 11:40:48;;;;;;;34.28;21.92;;;11.60;99.90;;;;;;4934051;29;20368;-78
2023/03/04 11:43:31;;;;;;;34.78;20.50;;;11.60;99.90;;;;;;4934549;29;20020;-77
2023/03/04 11:46:15;;;;;;;36.33;22.00;;;11.70;99.90;;;;;;4936812;29;20067;-78
2023/03/04 11:48:41;;;;;;;28.02;19.60;;;11.80;99.90;;;;;;4937984;29;20023;-76
2023/03/04 11:51:39;;;;;;;36.13;20.98;;;11.70;99.90;;;;;;4937991;29;20430;-77
2023/03/04 11:54:27;;;;;;;30.10;19.92;;;11.80;99.90;;;;;;4937903;29;20115;-78
2023/03/04 11:57:17;;;;;;;30.95;20.63;;;11.80;99.90;;;;;;4937855;29;20118;-77
2023/03/04 11:59:51;;;;;;;33.00;19.77;;;11.90;99.90;;;;;;4937752;29;20035;-78
2023/03/04 12:02:38;;;;;;;32.40;19.90;;;11.70;99.90;;;;;;4937298;29;20501;-76
2023/03/04 12:05:50;;;;;;;30.80;18.73;;;11.60;99.90;;;;;;4937784;29;20059;-77
2023/03/04 12:08:50;;;;;;;32.85;22.83;;;11.80;99.90;;;;;;4897297;29;20076;-75
2023/03/04 12:11:28;;;;;;;32.13;18.83;;;11.80;99.90;;;;;;4937579;29;20059;-77
2023/03/04 12:14:20;;;;;;;31.83;19.40;;;11.60;99.90;;;;;;4927717;29;20030;-74
2023/03/04 12:17:14;;;;;;;36.17;21.08;;;11.50;99.90;;;;;;4937193;29;20099;-77
2023/03/04 12:20:06;;;;;;;34.58;21.13;;;11.50;99.90;;;;;;4934406;29;20055;-76
2023/03/04 12:22:50;;;;;;;38.92;19.48;;;11.80;99.90;;;;;;4933370;29;20019;-76
2023/03/04 12:25:27;;;;;;;32.15;19.45;;;11.60;99.90;;;;;;4937356;29;20035;-77
2023/03/04 12:28:08;;;;;;;38.72;23.10;;;11.40;99.90;;;;;;4937421;29;20044;-77
2023/03/04 12:30:52;;;;;;;31.13;19.42;;;11.40;99.90;;;;;;4935930;29;20540;-73
2023/03/04 12:33:55;;;;;;;30.05;19.55;;;11.60;99.90;;;;;;4931333;29;20111;-75
2023/03/04 12:36:43;;;;;;;40.47;23.42;;;11.60;99.90;;;;;;4937181;29;20385;-77
2023/03/04 12:39:12;;;;;;;37.40;22.13;;;11.60;99.90;;;;;;4926136;29;20040;-75
2023/03/04 12:41:46;;;;;;;35.30;21.95;;;11.50;99.90;;;;;;4936301;29;20036;-76
2023/03/04 12:44:19;;;;;;;32.53;20.08;;;11.70;99.90;;;;;;4936762;29;20564;-77
2023/03/04 12:46:51;;;;;;;;;;;11.40;99.90;;;;;;4937221;29;20031;-75
2023/03/04 12:49:42;;;;;;;37.33;21.55;;;11.50;99.90;;;;;;4936948;29;20395;-79